Time;durP1;ratioP1;P1;durP2;ratioP2;P2;SDS_P1;SDS_P2;PMS_P1;PMS_P2;Temp;Humidity;BMP_temperature;BMP_pressure;BME280_temperature;BME280_humidity;BME280_pressure;Samples;Min_cycle;Max_cycle;Signal;HPM_P1;HPM_P2
2022/04/30 00:02:09;;;;;;;12.23;7.40;;;5.20;99.90;;;;;;5097504;28;20044;-57
2022/04/30 00:04:40;;;;;;;13.13;8.50;;;5.20;99.90;;;;;;5096675;28;20039;-59
2022/04/30 00:07:08;;;;;;;16.63;8.75;;;5.20;99.90;;;;;;5096946;28;20150;-56
2022/04/30 00:09:34;;;;;;;14.07;8.73;;;5.20;99.90;;;;;;5096633;28;20098;-55
2022/04/30 00:12:01;;;;;;;14.77;8.00;;;5.20;99.90;;;;;;5096305;28;20074;-57
2022/04/30 00:14:27;;;;;;;15.25;8.52;;;5.20;99.90;;;;;;5096020;28;20044;-57
2022/04/30 00:16:53;;;;;;;13.90;8.98;;;5.20;99.90;;;;;;5098244;28;20550;-57
2022/04/30 00:19:21;;;;;;;15.35;8.65;;;5.20;99.90;;;;;;5095701;28;20043;-57
2022/04/30 00:21:48;;;;;;;13.07;8.40;;;5.20;99.90;;;;;;5096297;28;20758;-57
2022/04/30 00:24:14;;;;;;;14.73;8.50;;;5.20;99.90;;;;;;5079013;28;20043;-56
2022/04/30 00:26:40;;;;;;;13.23;8.80;;;5.20;99.90;;;;;;5095682;28;20073;-57
2022/04/30 00:29:07;;;;;;;10.85;7.80;;;5.20;99.90;;;;;;5080677;28;20089;-56
2022/04/30 00:31:34;;;;;;;14.75;7.45;;;5.20;99.90;;;;;;5094939;28;20162;-57
2022/04/30 00:34:01;;;;;;;13.57;8.88;;;5.20;99.90;;;;;;5079835;28;20543;-56
2022/04/30 00:36:28;;;;;;;12.05;7.80;;;5.10;99.90;;;;;;5095545;28;20048;-56
2022/04/30 00:38:54;;;;;;;13.13;8.27;;;5.20;99.90;;;;;;5096432;28;20048;-59
2022/04/30 00:41:21;;;;;;;9.45;6.93;;;5.10;99.90;;;;;;5085933;28;20045;-56
2022/04/30 00:43:49;;;;;;;11.10;7.35;;;5.10;99.90;;;;;;5078883;28;20056;-56
2022/04/30 00:46:17;;;;;;;11.88;7.22;;;5.10;99.90;;;;;;5095019;28;20052;-57
2022/04/30 00:48:44;;;;;;;10.32;7.68;;;5.20;99.90;;;;;;5094100;28;20052;-56
2022/04/30 00:51:15;;;;;;;11.95;7.78;;;5.20;99.90;;;;;;5094257;28;20503;-56
2022/04/30 00:53:44;;;;;;;11.88;7.03;;;5.20;99.90;;;;;;5094909;28;20394;-57
2022/04/30 00:56:13;;;;;;;12.27;6.63;;;5.20;99.90;;;;;;5094653;28;20048;-57
2022/04/30 00:58:41;;;;;;;10.32;6.47;;;5.20;99.90;;;;;;5094348;28;20043;-58
2022/04/30 01:01:08;;;;;;;12.68;6.70;;;5.10;99.90;;;;;;5091677;28;20395;-58
2022/04/30 01:03:34;;;;;;;11.63;7.15;;;5.10;99.90;;;;;;5093358;28;20044;-58
2022/04/30 01:06:01;;;;;;;9.38;6.72;;;5.10;99.90;;;;;;5092923;28;20086;-57
2022/04/30 01:08:28;;;;;;;10.65;6.68;;;5.10;99.90;;;;;;5093458;28;20048;-57
2022/04/30 01:10:55;;;;;;;9.63;6.57;;;5.00;99.90;;;;;;5075276;28;20048;-56
2022/04/30 01:13:21;;;;;;;10.38;6.35;;;5.10;99.90;;;;;;5094110;28;20040;-58
2022/04/30 01:15:47;;;;;;;12.07;6.72;;;5.10;99.90;;;;;;5092809;28;20050;-57
2022/04/30 01:18:13;;;;;;;9.73;6.70;;;5.00;99.90;;;;;;5095890;28;20103;-56
2022/04/30 01:20:47;;;;;;;11.77;7.15;;;5.10;99.90;;;;;;5094187;28;20056;-57
2022/04/30 01:23:14;;;;;;;12.38;7.03;;;5.10;99.90;;;;;;5094772;28;20044;-56
2022/04/30 01:25:42;;;;;;;8.55;6.20;;;5.00;99.90;;;;;;5093974;28;20047;-57
2022/04/30 01:28:11;;;;;;;7.57;6.13;;;5.00;99.90;;;;;;5095345;28;20054;-57
2022/04/30 01:30:37;;;;;;;8.32;6.28;;;5.00;99.90;;;;;;5094176;28;20387;-57
2022/04/30 01:37:22;;;;;;;10.77;6.38;;;5.00;99.90;;;;;;5091919;28;20047;-57
2022/04/30 01:38:47;;;;;;;9.75;7.07;;;5.00;99.90;;;;;;5095340;28;20557;-57
2022/04/30 01:41:13;;;;;;;13.02;6.30;;;5.00;99.90;;;;;;5078671;28;20104;-56
2022/04/30 01:43:39;;;;;;;12.82;7.07;;;5.00;99.90;;;;;;5093179;28;20051;-57
2022/04/30 01:46:06;;;;;;;10.98;6.50;;;5.00;99.90;;;;;;5092934;28;20177;-57
2022/04/30 01:48:32;;;;;;;9.88;6.97;;;5.00;99.90;;;;;;5094336;28;20043;-57
2022/04/30 01:51:00;;;;;;;18.13;6.93;;;5.00;99.90;;;;;;5095166;28;20043;-57
2022/04/30 01:53:26;;;;;;;11.50;6.50;;;5.00;99.90;;;;;;5093337;28;20443;-59
2022/04/30 01:55:52;;;;;;;13.32;6.07;;;4.90;99.90;;;;;;5095783;28;20055;-58
2022/04/30 01:58:19;;;;;;;10.30;7.18;;;4.80;99.90;;;;;;5092092;28;20047;-57
2022/04/30 02:00:45;;;;;;;8.23;5.90;;;4.90;99.90;;;;;;5078975;28;20062;-57
2022/04/30 02:03:15;;;;;;;11.15;7.00;;;4.90;99.90;;;;;;5095770;28;20039;-56
2022/04/30 02:05:41;;;;;;;10.45;6.45;;;4.90;99.90;;;;;;5092439;28;20044;-57
2022/04/30 02:08:11;;;;;;;15.30;7.40;;;4.80;99.90;;;;;;5082906;28;20086;-57
2022/04/30 02:10:40;;;;;;;9.07;6.65;;;4.90;99.90;;;;;;5095377;28;20101;-57
2022/04/30 02:13:08;;;;;;;9.82;6.85;;;4.80;99.90;;;;;;5094751;28;20683;-57
2022/04/30 02:15:35;;;;;;;10.20;6.65;;;4.90;99.90;;;;;;5065912;28;20059;-59
2022/04/30 02:18:06;;;;;;;9.25;6.70;;;4.80;99.90;;;;;;5075412;28;20035;-59
2022/04/30 02:20:34;;;;;;;12.18;6.60;;;4.80;99.90;;;;;;5082929;28;20048;-58
2022/04/30 02:23:04;;;;;;;13.40;7.03;;;4.80;99.90;;;;;;5091365;28;20035;-58
2022/04/30 02:25:31;;;;;;;9.52;6.72;;;4.80;99.90;;;;;;5091235;28;20051;-57
2022/04/30 02:27:59;;;;;;;9.98;6.45;;;4.70;99.90;;;;;;5090348;28;20114;-57
2022/04/30 02:30:27;;;;;;;8.40;6.20;;;4.80;99.90;;;;;;5092189;28;20051;-58
2022/04/30 02:33:01;;;;;;;8.85;6.20;;;4.80;99.90;;;;;;5089036;28;20052;-58
2022/04/30 02:35:30;;;;;;;14.25;7.57;;;4.80;99.90;;;;;;5092577;28;20040;-56
2022/04/30 02:37:59;;;;;;;10.45;6.45;;;4.70;99.90;;;;;;5092565;28;20059;-58
2022/04/30 02:40:27;;;;;;;12.30;6.65;;;4.70;99.90;;;;;;5076811;28;20043;-58
2022/04/30 02:42:54;;;;;;;10.55;7.03;;;4.80;99.90;;;;;;5090058;28;20071;-58
2022/04/30 02:45:22;;;;;;;10.60;6.88;;;4.70;99.90;;;;;;5091431;28;20051;-57
2022/04/30 02:47:55;;;;;;;12.55;7.57;;;4.70;99.90;;;;;;5091362;28;20055;-58
2022/04/30 02:50:22;;;;;;;;;;;4.70;99.90;;;;;;5090268;28;20043;-58
2022/04/30 02:52:49;;;;;;;11.07;7.13;;;4.70;99.90;;;;;;5092237;28;19972;-58
2022/04/30 02:55:15;;;;;;;12.77;6.30;;;4.70;99.90;;;;;;5091839;28;20134;-57
2022/04/30 03:00:39;;;;;;;8.77;6.05;;;4.70;99.90;;;;;;5094114;28;20039;-58
2022/04/30 03:03:15;;;;;;;11.98;6.82;;;4.70;99.90;;;;;;5094108;28;20446;-58
2022/04/30 03:05:43;;;;;;;12.63;7.30;;;4.70;99.90;;;;;;5083424;28;20459;-57
2022/04/30 03:08:12;;;;;;;10.50;6.97;;;4.70;99.90;;;;;;5091901;28;20071;-58
2022/04/30 03:10:45;;;;;;;11.23;6.97;;;4.70;99.90;;;;;;5076458;28;20394;-59
2022/04/30 03:13:15;;;;;;;9.95;6.97;;;4.60;99.90;;;;;;5090941;28;20067;-58
2022/04/30 03:15:44;;;;;;;10.38;6.75;;;4.70;99.90;;;;;;5077865;28;20036;-57
2022/04/30 03:23:42;;;;;;;10.00;6.40;;;4.60;99.90;;;;;;5081662;28;20154;-58
2022/04/30 03:26:09;;;;;;;10.85;7.10;;;4.60;99.90;;;;;;5081986;28;20541;-58
2022/04/30 03:28:37;;;;;;;11.25;7.40;;;4.70;99.90;;;;;;5096092;28;20208;-58
2022/04/30 03:31:08;;;;;;;11.13;6.80;;;4.80;99.90;;;;;;5097694;28;20330;-57
2022/04/30 03:33:34;;;;;;;10.20;7.05;;;4.70;99.90;;;;;;5078638;28;20106;-58
2022/04/30 03:36:00;;;;;;;10.02;7.38;;;4.70;99.90;;;;;;5093898;28;20578;-57
2022/04/30 03:38:26;;;;;;;9.30;7.03;;;4.70;99.90;;;;;;5075865;28;20453;-58
2022/04/30 03:40:52;;;;;;;10.38;7.05;;;4.70;99.90;;;;;;5075527;28;20048;-57
2022/04/30 03:43:18;;;;;;;10.38;6.88;;;4.70;99.90;;;;;;5096598;28;20630;-58
2022/04/30 03:45:45;;;;;;;13.02;7.15;;;4.70;99.90;;;;;;5094485;28;20140;-57
2022/04/30 03:48:12;;;;;;;13.05;7.13;;;4.60;99.90;;;;;;5093294;28;20489;-57
2022/04/30 03:50:39;;;;;;;9.07;6.68;;;4.70;99.90;;;;;;5096618;28;20044;-57
2022/04/30 03:53:06;;;;;;;10.48;7.40;;;4.60;99.90;;;;;;5094514;28;20040;-58
2022/04/30 03:55:31;;;;;;;10.68;7.75;;;4.60;99.90;;;;;;5086837;28;20318;-56
2022/04/30 03:57:57;;;;;;;11.15;7.40;;;4.60;99.90;;;;;;5095326;28;20131;-57
2022/04/30 04:00:24;;;;;;;13.23;7.90;;;4.70;99.90;;;;;;5096852;27;20051;-56
2022/04/30 04:02:51;;;;;;;10.48;7.53;;;4.70;99.90;;;;;;5097375;28;20089;-58
2022/04/30 04:05:17;;;;;;;12.38;7.70;;;4.70;99.90;;;;;;5079281;28;20047;-56
2022/04/30 04:07:44;;;;;;;9.93;7.07;;;4.70;99.90;;;;;;5094913;28;20050;-57
2022/04/30 04:10:12;;;;;;;8.98;7.28;;;4.70;99.90;;;;;;5077788;28;20048;-58
2022/04/30 04:12:39;;;;;;;14.15;7.72;;;4.80;99.90;;;;;;5096242;28;20076;-55
2022/04/30 04:17:52;;;;;;;9.45;6.97;;;4.80;99.90;;;;;;5099815;28;20946;-57
2022/04/30 04:20:22;;;;;;;10.38;8.15;;;4.80;99.90;;;;;;5096014;28;20059;-57
2022/04/30 04:22:48;;;;;;;14.93;8.52;;;4.90;99.90;;;;;;5094408;28;20039;-57
2022/04/30 04:27:58;;;;;;;13.95;8.35;;;5.00;99.90;;;;;;5090580;28;20039;-58
2022/04/30 04:30:27;;;;;;;11.98;8.50;;;5.00;99.90;;;;;;5092728;28;20116;-57
2022/04/30 04:32:54;;;;;;;12.40;8.15;;;5.00;99.90;;;;;;5092220;28;20082;-57
2022/04/30 04:35:21;;;;;;;15.05;8.43;;;5.10;99.90;;;;;;5096593;28;20135;-56
2022/04/30 04:37:46;;;;;;;12.15;7.80;;;5.10;99.90;;;;;;5077194;28;20044;-57
2022/04/30 04:40:14;;;;;;;13.30;8.80;;;5.10;99.90;;;;;;5095165;28;20643;-56
2022/04/30 04:42:41;;;;;;;12.05;8.30;;;5.20;99.90;;;;;;5061127;28;20083;-56
2022/04/30 04:45:08;;;;;;;12.77;8.35;;;5.20;99.90;;;;;;5077951;28;20039;-55
2022/04/30 04:47:36;;;;;;;13.43;8.93;;;5.30;99.90;;;;;;5096577;28;20098;-56
2022/04/30 04:50:03;;;;;;;11.40;8.02;;;5.30;99.90;;;;;;5079180;28;20036;-57
2022/04/30 04:52:30;;;;;;;13.32;8.88;;;5.40;99.90;;;;;;5095638;28;20051;-55
2022/04/30 04:54:58;;;;;;;14.27;8.70;;;5.40;99.90;;;;;;5092542;28;20047;-57
2022/04/30 04:57:23;;;;;;;12.18;8.82;;;5.40;99.90;;;;;;5096574;28;20082;-56
2022/04/30 04:59:50;;;;;;;14.98;9.20;;;5.50;99.90;;;;;;5094387;28;20055;-56
2022/04/30 05:02:19;;;;;;;11.77;9.45;;;5.50;99.90;;;;;;5093973;28;20093;-54
2022/04/30 05:04:45;;;;;;;12.57;8.43;;;5.50;99.90;;;;;;5096296;28;20120;-56
2022/04/30 05:07:11;;;;;;;13.65;8.88;;;5.60;99.90;;;;;;5096075;28;20052;-57
2022/04/30 05:09:38;;;;;;;15.50;9.20;;;5.60;99.90;;;;;;5075105;28;20036;-56
2022/04/30 05:12:04;;;;;;;17.80;9.13;;;5.70;99.90;;;;;;5078112;28;20047;-57
2022/04/30 05:14:34;;;;;;;13.68;9.18;;;5.70;99.90;;;;;;5094713;28;20042;-56
2022/04/30 05:17:02;;;;;;;14.77;8.98;;;5.70;99.90;;;;;;5094737;28;20035;-57
2022/04/30 05:19:28;;;;;;;12.25;9.30;;;5.80;99.90;;;;;;5092714;28;20063;-56
2022/04/30 05:21:54;;;;;;;13.07;9.43;;;5.90;99.90;;;;;;5094323;28;20040;-56
2022/04/30 05:24:21;;;;;;;11.50;9.00;;;5.90;99.90;;;;;;5067906;28;20032;-57
2022/04/30 05:26:49;;;;;;;15.02;9.75;;;6.00;99.90;;;;;;5077794;28;20486;-58
2022/04/30 05:29:16;;;;;;;16.58;9.52;;;6.10;99.90;;;;;;5092756;28;20467;-56
2022/04/30 05:31:43;;;;;;;10.95;8.75;;;6.10;99.90;;;;;;5084479;28;20036;-56
2022/04/30 05:34:09;;;;;;;12.63;9.20;;;6.20;99.90;;;;;;5094079;28;20062;-57
2022/04/30 05:36:37;;;;;;;13.77;8.88;;;6.30;99.90;;;;;;5092976;28;20526;-57
2022/04/30 05:39:03;;;;;;;17.27;8.95;;;6.30;99.90;;;;;;5077560;28;20088;-57
2022/04/30 05:41:29;;;;;;;13.35;8.50;;;6.40;99.90;;;;;;5093397;28;20082;-57
2022/04/30 05:43:55;;;;;;;11.10;8.52;;;6.50;99.90;;;;;;5079036;28;20444;-56
2022/04/30 05:46:22;;;;;;;15.95;9.43;;;6.50;99.90;;;;;;5096263;28;20044;-54
2022/04/30 05:48:48;;;;;;;12.10;9.00;;;6.60;99.90;;;;;;5074078;28;20055;-57
2022/04/30 05:51:14;;;;;;;13.05;8.40;;;6.60;99.90;;;;;;5095778;28;20071;-58
2022/04/30 05:53:40;;;;;;;13.88;8.90;;;6.70;99.90;;;;;;5094092;28;20074;-57
2022/04/30 05:56:07;;;;;;;14.48;9.18;;;6.80;99.90;;;;;;5093285;28;20040;-57
2022/04/30 05:58:33;;;;;;;13.18;8.65;;;6.90;99.90;;;;;;5094435;28;20203;-57
2022/04/30 06:00:59;;;;;;;13.70;9.00;;;7.00;99.90;;;;;;5077670;28;20125;-57
2022/04/30 06:03:28;;;;;;;14.05;9.07;;;7.10;99.90;;;;;;5079533;28;20506;-57
2022/04/30 06:05:54;;;;;;;10.98;8.85;;;7.20;99.90;;;;;;5092788;28;20054;-58
2022/04/30 06:08:21;;;;;;;13.13;8.98;;;7.30;99.90;;;;;;5092507;28;20576;-56
2022/04/30 06:10:46;;;;;;;15.73;10.00;;;7.40;99.90;;;;;;5094921;28;20035;-57
2022/04/30 06:13:13;;;;;;;15.25;9.82;;;7.60;99.90;;;;;;5094085;28;20085;-58
2022/04/30 06:15:39;;;;;;;15.85;10.13;;;7.70;99.90;;;;;;5096300;28;20055;-57
2022/04/30 06:18:05;;;;;;;12.27;8.88;;;7.90;99.90;;;;;;5083013;28;20482;-57
2022/04/30 06:20:31;;;;;;;14.15;9.35;;;8.00;99.90;;;;;;5092815;28;20075;-57
2022/04/30 06:22:58;;;;;;;15.98;10.00;;;8.10;99.90;;;;;;5074995;28;20052;-57
2022/04/30 06:25:24;;;;;;;13.30;9.52;;;8.20;99.90;;;;;;5092045;28;20504;-57
2022/04/30 06:27:50;;;;;;;12.52;9.07;;;8.30;99.90;;;;;;5076805;28;20051;-58
2022/04/30 06:30:16;;;;;;;16.33;10.30;;;8.40;99.90;;;;;;5076743;28;20066;-58
2022/04/30 06:32:42;;;;;;;17.95;8.93;;;8.50;99.90;;;;;;5090836;28;20040;-58
2022/04/30 06:35:08;;;;;;;17.20;8.95;;;8.50;99.90;;;;;;5092181;28;20078;-57
2022/04/30 06:37:34;;;;;;;14.93;8.73;;;8.50;99.90;;;;;;5093519;28;20047;-58
2022/04/30 06:40:00;;;;;;;15.00;8.40;;;8.50;99.90;;;;;;5093652;28;20047;-57
2022/04/30 06:42:26;;;;;;;12.02;8.82;;;8.60;99.90;;;;;;5093058;28;20079;-58
2022/04/30 06:44:54;;;;;;;16.63;9.82;;;8.60;99.90;;;;;;5094746;28;20047;-57
2022/04/30 06:47:21;;;;;;;13.07;8.57;;;8.60;99.90;;;;;;5093424;28;20051;-58
2022/04/30 06:49:47;;;;;;;15.13;8.88;;;8.60;99.90;;;;;;5092055;28;20078;-58
2022/04/30 06:52:13;;;;;;;13.55;8.95;;;8.60;99.90;;;;;;5071869;28;20044;-58
2022/04/30 06:57:23;;;;;;;15.68;9.45;;;8.60;99.90;;;;;;5089020;28;20048;-58
2022/04/30 06:59:52;;;;;;;19.85;10.93;;;8.60;99.90;;;;;;5090742;28;20052;-57
2022/04/30 07:02:20;;;;;;;17.45;9.45;;;8.70;99.90;;;;;;5092219;28;20040;-56
2022/04/30 07:04:49;;;;;;;14.45;9.05;;;8.70;99.90;;;;;;5092469;28;20058;-57
2022/04/30 07:07:15;;;;;;;12.45;8.88;;;8.70;99.90;;;;;;5090929;28;20059;-57
2022/04/30 07:09:42;;;;;;;15.73;9.05;;;8.80;99.90;;;;;;5092267;28;20044;-57
2022/04/30 07:12:10;;;;;;;19.08;9.93;;;8.80;99.90;;;;;;5090592;28;20389;-58
2022/04/30 07:14:37;;;;;;;14.98;9.07;;;8.90;99.90;;;;;;5091180;28;20048;-56
2022/04/30 07:17:08;;;;;;;12.65;8.88;;;8.90;99.90;;;;;;5091646;28;20052;-58
2022/04/30 07:19:35;;;;;;;15.55;9.40;;;9.00;99.90;;;;;;5090324;28;20613;-56
2022/04/30 07:22:02;;;;;;;17.85;9.50;;;9.00;99.90;;;;;;5091203;28;20038;-58
2022/04/30 07:24:29;;;;;;;14.05;8.65;;;9.10;99.90;;;;;;5092599;28;20831;-57
2022/04/30 07:26:55;;;;;;;15.75;9.15;;;9.20;99.90;;;;;;5074705;28;20040;-57
2022/04/30 07:29:21;;;;;;;11.15;8.32;;;9.30;99.90;;;;;;5072845;28;20052;-57
2022/04/30 07:31:46;;;;;;;13.45;8.23;;;9.40;99.90;;;;;;5093388;28;20477;-57
2022/04/30 07:34:12;;;;;;;16.85;8.55;;;9.50;99.90;;;;;;5092429;28;20058;-57
2022/04/30 07:36:39;;;;;;;15.15;8.63;;;9.60;99.90;;;;;;5093064;28;20505;-58
2022/04/30 07:39:06;;;;;;;15.23;8.50;;;9.60;99.90;;;;;;5074965;28;20667;-57
2022/04/30 07:41:32;;;;;;;12.98;8.43;;;9.70;99.90;;;;;;5091575;28;20048;-58
2022/04/30 07:43:59;;;;;;;11.85;8.18;;;9.80;99.90;;;;;;5093803;28;20052;-57
2022/04/30 07:46:26;;;;;;;12.75;8.18;;;9.80;99.90;;;;;;5091371;28;20048;-57
2022/04/30 07:48:52;;;;;;;14.50;8.48;;;10.00;99.90;;;;;;5089068;28;20104;-57
2022/04/30 07:51:34;;;;;;;11.07;8.05;;;10.00;99.90;;;;;;5091468;28;20028;-56
2022/04/30 07:54:02;;;;;;;;;;;10.10;99.90;;;;;;5091807;28;20135;-57
2022/04/30 07:56:28;;;;;;;14.77;8.57;;;10.20;99.90;;;;;;5092429;28;19920;-57
2022/04/30 07:58:54;;;;;;;14.13;7.20;;;10.20;99.90;;;;;;5093332;28;20059;-58
2022/04/30 08:01:20;;;;;;;12.48;7.03;;;10.30;99.90;;;;;;5092662;28;20519;-56
2022/04/30 08:03:45;;;;;;;11.30;7.70;;;10.40;99.90;;;;;;5095732;28;20055;-57
2022/04/30 08:06:11;;;;;;;12.73;8.07;;;10.50;99.90;;;;;;5097085;28;20048;-57
2022/04/30 08:08:38;;;;;;;14.02;7.32;;;10.60;99.90;;;;;;5095817;28;20131;-57
2022/04/30 08:11:05;;;;;;;12.02;7.70;;;10.60;99.90;;;;;;5096780;28;20051;-57
2022/04/30 08:13:31;;;;;;;16.25;7.47;;;10.70;99.90;;;;;;5096329;28;20486;-57
2022/04/30 08:15:57;;;;;;;12.65;7.47;;;10.70;99.90;;;;;;5097321;28;20040;-59
2022/04/30 08:18:26;;;;;;;12.10;7.20;;;10.80;99.90;;;;;;5079910;28;20060;-59
2022/04/30 08:20:53;;;;;;;10.90;7.03;;;10.90;99.90;;;;;;5095770;28;20040;-57
2022/04/30 08:23:19;;;;;;;12.75;7.45;;;11.00;99.90;;;;;;5096567;28;20051;-58
2022/04/30 08:25:45;;;;;;;10.80;7.68;;;11.00;99.90;;;;;;5094906;28;20040;-56
2022/04/30 08:28:11;;;;;;;11.45;7.30;;;11.10;99.90;;;;;;5066049;28;20051;-58
2022/04/30 08:30:37;;;;;;;9.57;7.30;;;11.20;99.90;;;;;;5076279;28;20501;-57
2022/04/30 08:33:03;;;;;;;12.10;7.88;;;11.20;99.90;;;;;;5074002;28;20349;-58
2022/04/30 08:35:30;;;;;;;11.98;7.05;;;11.30;99.90;;;;;;5092041;28;20067;-57
2022/04/30 08:37:55;;;;;;;11.38;8.00;;;11.30;99.90;;;;;;5074368;28;20083;-58
2022/04/30 08:40:22;;;;;;;12.25;7.80;;;11.30;99.90;;;;;;5087212;28;20489;-57
2022/04/30 08:42:49;;;;;;;9.65;7.40;;;11.30;99.90;;;;;;5094790;28;20052;-58
2022/04/30 08:45:15;;;;;;;11.60;7.55;;;11.40;99.90;;;;;;5077758;28;20486;-57
2022/04/30 08:47:43;;;;;;;10.75;7.50;;;11.40;99.90;;;;;;5076142;28;20047;-58
2022/04/30 08:50:14;;;;;;;10.70;7.07;;;11.50;99.90;;;;;;5096800;28;20570;-57
2022/04/30 08:52:41;;;;;;;10.35;7.00;;;11.60;99.90;;;;;;5095678;28;20118;-57
2022/04/30 08:55:09;;;;;;;9.95;7.03;;;11.60;99.90;;;;;;5095510;28;20055;-58
2022/04/30 08:57:36;;;;;;;11.23;6.63;;;11.70;99.90;;;;;;5094204;28;20089;-57
2022/04/30 09:00:04;;;;;;;9.75;7.20;;;11.80;99.90;;;;;;5079068;28;20044;-58
2022/04/30 09:02:30;;;;;;;10.00;6.90;;;11.90;99.90;;;;;;5094843;28;20054;-57
2022/04/30 09:04:56;;;;;;;10.48;7.50;;;11.90;99.90;;;;;;5095334;28;20048;-58
2022/04/30 09:07:24;;;;;;;8.13;6.75;;;12.00;99.90;;;;;;5096319;28;20082;-58
2022/04/30 09:09:58;;;;;;;14.38;7.40;;;12.10;99.90;;;;;;5096976;28;20048;-57
2022/04/30 09:12:25;;;;;;;9.45;6.65;;;12.10;99.90;;;;;;5094291;28;20035;-56
2022/04/30 09:14:52;;;;;;;9.18;6.70;;;12.10;99.90;;;;;;5076967;28;20644;-58
2022/04/30 09:17:18;;;;;;;9.18;6.30;;;12.30;99.90;;;;;;5096130;28;20070;-58
2022/04/30 09:19:52;;;;;;;9.18;5.95;;;12.30;99.90;;;;;;5092165;28;20036;-57
2022/04/30 09:22:38;;;;;;;9.95;5.93;;;12.30;99.90;;;;;;5095636;28;20046;-58
2022/04/30 09:25:09;;;;;;;9.85;7.05;;;12.40;99.90;;;;;;5074875;28;20058;-58
2022/04/30 09:27:43;;;;;;;12.55;6.88;;;12.50;99.90;;;;;;5074253;28;20050;-59
2022/04/30 09:30:20;;;;;;;14.18;6.35;;;12.60;99.90;;;;;;5095387;28;20097;-58
2022/04/30 09:32:57;;;;;;;10.98;6.32;;;12.60;99.90;;;;;;5076436;28;20106;-57
2022/04/30 09:38:07;;;;;;;11.82;6.60;;;12.70;99.90;;;;;;5093775;28;20063;-59
2022/04/30 09:40:33;;;;;;;10.50;6.40;;;12.70;99.90;;;;;;5093875;28;20070;-58
2022/04/30 09:43:01;;;;;;;10.02;6.63;;;12.80;99.90;;;;;;5091794;28;20061;-57
2022/04/30 09:45:34;;;;;;;9.98;6.00;;;12.90;99.90;;;;;;5095298;28;20542;-58
2022/04/30 09:56:37;;;;;;;11.80;5.47;;;12.60;99.90;;;;;;5093256;28;20783;-57
2022/04/30 09:59:08;;;;;;;9.73;5.50;;;12.50;99.90;;;;;;5093264;28;20115;-58
2022/04/30 10:01:36;;;;;;;11.55;5.60;;;12.50;99.90;;;;;;5094192;28;20078;-58
2022/04/30 10:04:11;;;;;;;7.38;4.78;;;12.50;99.90;;;;;;5058592;28;20050;-58
2022/04/30 10:06:42;;;;;;;7.97;4.57;;;12.50;99.90;;;;;;5092102;28;20119;-57
2022/04/30 10:09:10;;;;;;;7.35;4.65;;;12.50;99.90;;;;;;5093491;28;20050;-57
2022/04/30 10:12:03;;;;;;;7.30;4.63;;;12.40;99.90;;;;;;5091323;28;20040;-57
2022/04/30 10:14:50;;;;;;;6.05;4.05;;;12.40;99.90;;;;;;5078851;28;20043;-57
2022/04/30 10:17:18;;;;;;;7.90;4.45;;;12.30;99.90;;;;;;5076678;28;20553;-58
2022/04/30 10:20:04;;;;;;;6.55;4.20;;;12.20;99.90;;;;;;5093980;28;20438;-59
2022/04/30 10:22:31;;;;;;;5.20;4.00;;;12.10;99.90;;;;;;5093149;28;20108;-58
2022/04/30 10:24:59;;;;;;;7.93;4.18;;;12.10;99.90;;;;;;5093926;28;20048;-58
2022/04/30 10:27:41;;;;;;;5.85;4.82;;;12.10;99.90;;;;;;5093109;28;20101;-58
2022/04/30 10:30:18;;;;;;;11.13;4.90;;;12.10;99.90;;;;;;5076497;28;20061;-59
2022/04/30 10:32:55;;;;;;;9.38;4.95;;;12.10;99.90;;;;;;5094034;28;20470;-58
2022/04/30 10:35:35;;;;;;;9.93;5.10;;;12.10;99.90;;;;;;5093046;28;20044;-58
2022/04/30 10:38:21;;;;;;;6.70;4.97;;;12.10;99.90;;;;;;5078388;28;20056;-59
2022/04/30 10:40:49;;;;;;;6.72;4.75;;;12.10;99.90;;;;;;5094525;28;20052;-58
2022/04/30 10:43:27;;;;;;;8.15;5.28;;;12.10;99.90;;;;;;5090797;28;20054;-58
2022/04/30 10:45:56;;;;;;;12.93;5.93;;;12.10;99.90;;;;;;5090141;28;20547;-57
2022/04/30 10:48:22;;;;;;;10.60;6.00;;;12.10;99.90;;;;;;5092119;28;20039;-58
2022/04/30 10:50:56;;;;;;;9.75;5.65;;;12.10;99.90;;;;;;5091753;28;20453;-57
2022/04/30 10:53:27;;;;;;;10.43;6.30;;;12.10;99.90;;;;;;5076446;28;20058;-58
2022/04/30 10:55:54;;;;;;;8.63;6.20;;;12.10;99.90;;;;;;5091858;28;20657;-57
2022/04/30 10:58:25;;;;;;;7.35;6.00;;;12.00;99.90;;;;;;5090168;28;20558;-57
2022/04/30 11:00:51;;;;;;;8.30;6.30;;;12.00;99.90;;;;;;5094567;28;20486;-58
2022/04/30 11:03:18;;;;;;;11.80;6.03;;;12.00;99.90;;;;;;5060909;28;20089;-58
2022/04/30 11:05:48;;;;;;;11.32;6.75;;;12.00;99.90;;;;;;5076093;28;20167;-57
2022/04/30 11:08:15;;;;;;;11.88;6.32;;;12.00;99.90;;;;;;5076476;28;20100;-59
2022/04/30 11:10:52;;;;;;;12.63;6.85;;;12.10;99.90;;;;;;5093783;28;20044;-58
2022/04/30 11:13:18;;;;;;;10.32;6.97;;;12.10;99.90;;;;;;5093981;28;20097;-58
2022/04/30 11:15:45;;;;;;;13.07;7.15;;;12.20;99.90;;;;;;5093437;28;20039;-58
2022/04/30 11:18:11;;;;;;;9.55;6.28;;;12.20;99.90;;;;;;5077400;28;20137;-59
2022/04/30 11:20:37;;;;;;;12.43;7.10;;;12.20;99.90;;;;;;5093589;28;20050;-57
2022/04/30 11:23:03;;;;;;;10.07;6.35;;;12.30;99.90;;;;;;5077641;28;20575;-58
2022/04/30 11:25:38;;;;;;;10.85;7.07;;;12.30;99.90;;;;;;5093315;28;20042;-58
2022/04/30 11:28:09;;;;;;;14.57;7.20;;;12.30;99.90;;;;;;5092060;28;20056;-57
2022/04/30 11:30:40;;;;;;;9.93;6.70;;;12.40;99.90;;;;;;5093264;28;20055;-58
2022/04/30 11:33:07;;;;;;;12.63;6.70;;;12.40;99.90;;;;;;5094487;28;20065;-58
2022/04/30 11:35:34;;;;;;;11.25;7.40;;;12.40;99.90;;;;;;5075287;28;20407;-58
2022/04/30 11:38:01;;;;;;;8.73;6.20;;;12.50;99.90;;;;;;5095734;28;20498;-56
2022/04/30 11:40:28;;;;;;;10.43;6.05;;;12.50;99.90;;;;;;5095700;28;20040;-57
2022/04/30 11:43:01;;;;;;;9.52;6.32;;;12.60;99.90;;;;;;5097504;28;20040;-58
2022/04/30 11:45:29;;;;;;;12.65;5.68;;;12.60;99.90;;;;;;5097136;28;20499;-57
2022/04/30 11:48:00;;;;;;;9.18;5.88;;;12.60;99.90;;;;;;5096706;28;20145;-58
2022/04/30 11:50:27;;;;;;;7.93;5.22;;;12.60;99.90;;;;;;5097369;28;20405;-58
2022/04/30 11:52:54;;;;;;;9.32;5.47;;;12.60;99.90;;;;;;5095906;28;20047;-58
2022/04/30 11:55:20;;;;;;;7.85;5.55;;;12.60;99.90;;;;;;5097386;28;20043;-58
2022/04/30 11:57:47;;;;;;;10.95;5.65;;;12.60;99.80;;;;;;5074628;28;20048;-58
2022/04/30 12:00:15;;;;;;;8.15;5.43;;;12.70;99.80;;;;;;5079842;28;20062;-58
2022/04/30 12:02:44;;;;;;;13.90;6.60;;;12.70;99.60;;;;;;5096784;28;20058;-58
2022/04/30 12:05:10;;;;;;;8.88;5.78;;;12.70;99.80;;;;;;5077171;28;20051;-58
2022/04/30 12:07:40;;;;;;;12.25;6.70;;;12.70;99.60;;;;;;5096961;28;20091;-57
2022/04/30 12:10:24;;;;;;;10.57;6.63;;;12.70;99.30;;;;;;5097406;28;20044;-58
2022/04/30 12:12:51;;;;;;;10.05;6.32;;;12.60;99.40;;;;;;5077480;28;20047;-58
2022/04/30 12:15:26;;;;;;;9.55;6.60;;;12.60;99.60;;;;;;5096153;28;20469;-57
2022/04/30 12:27:02;;;;;;;11.27;5.93;;;12.30;99.30;;;;;;5093075;28;20055;-57
2022/04/30 12:29:30;;;;;;;11.27;6.22;;;12.20;99.10;;;;;;5094483;28;20052;-58
2022/04/30 12:31:57;;;;;;;9.25;5.15;;;12.20;99.40;;;;;;5093583;28;20048;-57
2022/04/30 12:34:28;;;;;;;8.82;5.68;;;12.20;99.30;;;;;;5093959;28;20040;-59
2022/04/30 12:36:55;;;;;;;9.52;5.82;;;12.10;99.30;;;;;;5096648;28;20066;-58
2022/04/30 12:39:23;;;;;;;10.68;5.68;;;12.10;99.30;;;;;;5094716;28;20147;-57
2022/04/30 12:41:53;;;;;;;10.63;6.18;;;12.00;99.20;;;;;;5095283;28;20048;-59
2022/04/30 12:44:22;;;;;;;9.27;5.90;;;12.00;99.40;;;;;;5095340;28;20144;-58
2022/04/30 12:46:49;;;;;;;8.73;5.07;;;11.90;99.50;;;;;;5096282;28;20486;-57
2022/04/30 12:49:15;;;;;;;6.60;5.30;;;11.90;99.60;;;;;;5095598;28;20052;-56
2022/04/30 12:51:42;;;;;;;12.93;5.35;;;11.90;99.60;;;;;;5078862;28;20195;-57
2022/04/30 12:54:13;;;;;;;8.55;5.28;;;11.90;99.60;;;;;;5095348;28;20043;-57
2022/04/30 12:56:46;;;;;;;9.60;5.18;;;11.90;99.60;;;;;;5095379;28;20039;-58
2022/04/30 12:59:13;;;;;;;9.18;5.03;;;12.00;99.70;;;;;;5095847;28;20140;-57
2022/04/30 13:01:39;;;;;;;9.15;4.93;;;12.00;99.80;;;;;;5095497;28;20044;-58
2022/04/30 13:04:07;;;;;;;9.23;5.05;;;12.00;99.60;;;;;;5080177;28;20614;-57
2022/04/30 13:06:35;;;;;;;7.53;4.40;;;12.00;99.30;;;;;;5097064;28;20056;-57
2022/04/30 13:14:30;;;;;;;9.68;5.07;;;12.00;98.50;;;;;;5094916;28;20062;-58
2022/04/30 13:16:56;;;;;;;5.95;4.38;;;12.00;98.50;;;;;;5095880;28;20043;-57
2022/04/30 13:19:22;;;;;;;8.27;3.83;;;12.00;98.10;;;;;;5095647;28;20521;-57
2022/04/30 13:21:49;;;;;;;5.35;3.78;;;12.00;98.10;;;;;;5096213;28;20051;-57
2022/04/30 13:24:16;;;;;;;7.25;4.18;;;12.00;98.30;;;;;;5093297;28;20048;-58
2022/04/30 13:26:43;;;;;;;5.85;3.95;;;12.00;97.90;;;;;;5091638;28;20085;-58
2022/04/30 13:29:11;;;;;;;5.82;4.07;;;12.00;97.80;;;;;;5091229;28;20135;-57
2022/04/30 13:31:38;;;;;;;5.82;3.80;;;12.00;97.60;;;;;;5090264;28;20052;-56
2022/04/30 13:34:05;;;;;;;6.63;3.88;;;12.00;97.70;;;;;;5076262;28;20055;-58
2022/04/30 13:36:35;;;;;;;5.68;4.10;;;12.10;97.50;;;;;;5096158;28;20044;-58